tititudorancea.com
Station Historical Data
Daily Summary for February 22, 2018 Units:  Metric    English   Both
« Previous Day
Next Day »
Daily Weekly Monthly Yearly Custom
  High: Low: Average:
Temperature: -17.8 °C 17.8 °C 20.8 °C
Dew Point: -17.8 °C 9.9 °C 13.8 °C
Humidity: Humidity % 45 % 66 %
Wind Speed: 0 km/h 0 km/h 3.7 km/h
Wind Gust: 0 km/h - -
Wind:- - NNE
Pressure: 0 hPa 1010 hPa -
Precipitation: 4.06 mm    
Historical Graphs
 
 
Ararat weather Find more about Weather in Ararat, AU


 



 


Tabular Data for February 22, 2018
Time Temperature Dew Point Pressure Wind Wind Speed Wind Gust Humidity Rainfall Rate (Hourly)
-17.8 °C -17.8 °C 0 hPa Calm     Humidity % 0 mm
00:04 21.4 °C 12.5 °C 1011.7 hPa Calm     57 % 0 mm
00:09 21.3 °C 12.4 °C 1011.7 hPa Calm     57 % 0 mm
00:14 21.3 °C 12.7 °C 1011.4 hPa Calm     58 % 0 mm
00:19 21.2 °C 12.9 °C 1011.4 hPa Calm     59 % 0 mm
00:24 21.2 °C 13.1 °C 1011.4 hPa Calm     60 % 0 mm
00:29 21.1 °C 13.5 °C 1011.4 hPa Calm     62 % 0 mm
00:34 20.9 °C 13.1 °C 1011.4 hPa Calm     61 % 0 mm
00:39 20.8 °C 13.2 °C 1011.4 hPa NE 1.8 km/h 3.7 km/h 62 % 0 mm
00:44 20.7 °C 12.9 °C 1011.1 hPa NE 1.1 km/h 3.7 km/h 61 % 0 mm
00:49 20.6 °C 12.8 °C 1011.1 hPa Calm     61 % 0 mm
00:54 20.6 °C 12.8 °C 1011.1 hPa NE 1.6 km/h 3.2 km/h 61 % 0 mm
00:59 20.7 °C 12.9 °C 1011.1 hPa NE 3.7 km/h 5.6 km/h 61 % 0 mm
01:04 20.7 °C 12.9 °C 1011.1 hPa NE 2.7 km/h 5.6 km/h 61 % 0 mm
01:09 20.8 °C 12.7 °C 1011.1 hPa Calm   3.7 km/h 60 % 0 mm
01:14 20.8 °C 12.7 °C 1011.1 hPa NE 0.6 km/h 1.9 km/h 60 % 0 mm
01:19 20.8 °C 12.7 °C 1011.1 hPa NE 0.3 km/h   60 % 0 mm
01:24 20.8 °C 12.5 °C 1010.7 hPa NE 2.9 km/h 3.7 km/h 59 % 0 mm
01:29 20.9 °C 12.6 °C 1010.7 hPa NE 2.4 km/h 3.7 km/h 59 % 0 mm
01:34 20.9 °C 12.6 °C 1010.7 hPa NE 2.4 km/h 3.7 km/h 59 % 0 mm
01:39 20.9 °C 12.6 °C 1011.1 hPa NE 2.3 km/h 4.8 km/h 59 % 0 mm
01:44 21 °C 12.4 °C 1010.7 hPa NE 2.4 km/h 5.6 km/h 58 % 0 mm
01:49 21.1 °C 12.5 °C 1010.7 hPa NE 1.8 km/h 5.6 km/h 58 % 0 mm
01:54 21.1 °C 12.5 °C 1010.7 hPa NE 1 km/h 1.9 km/h 58 % 0 mm
01:59 21.1 °C 12.5 °C 1010.7 hPa Calm     58 % 0 mm
02:04 21.1 °C 12.4 °C 1010.7 hPa Calm     58 % 0 mm
02:09 21.1 °C 12.7 °C 1010.7 hPa Calm     59 % 0 mm
02:14 20.9 °C 12.6 °C 1010.7 hPa Calm     59 % 0 mm
02:19 20.8 °C 12.8 °C 1010.7 hPa Calm     60 % 0 mm
02:24 20.7 °C 12.7 °C 1010.7 hPa NE 0.6 km/h 3.7 km/h 60 % 0 mm
02:29 20.7 °C 13.1 °C 1010.4 hPa Calm     62 % 0 mm
02:34 20.5 °C 12.9 °C 1010.4 hPa Calm     62 % 0 mm
02:39 20.4 °C 13.1 °C 1010.4 hPa Calm     63 % 0 mm
02:49 20.1 °C 13.1 °C 1010.4 hPa Calm     64 % 0 mm
02:54 20.1 °C 13.1 °C 1010.4 hPa Calm     64 % 0 mm
02:59 20 °C 13.2 °C 1010.4 hPa Calm     65 % 0 mm
03:04 19.9 °C 13.2 °C 1010.4 hPa Calm     65 % 0 mm
03:09 19.9 °C 12.9 °C 1010.4 hPa NE 0.6 km/h 1.6 km/h 64 % 0 mm
03:14 20.1 °C 13.1 °C 1010.4 hPa Calm     64 % 0 mm
03:19 20.2 °C 13.1 °C 1010.4 hPa Calm     64 % 0 mm
03:24 20.2 °C 12.9 °C 1010.4 hPa Calm     63 % 0 mm
03:29 20.2 °C 12.9 °C 1010.4 hPa Calm     63 % 0 mm
03:34 20.2 °C 13.1 °C 1010.4 hPa Calm     64 % 0 mm
03:39 20.1 °C 13.1 °C 1010.4 hPa Calm     64 % 0 mm
03:44 20.1 °C 12.8 °C 1010.4 hPa Calm     63 % 0 mm
03:49 20.1 °C 13.1 °C 1010.4 hPa Calm     64 % 0 mm
03:54 20.1 °C 13.1 °C 1010 hPa Calm     64 % 0 mm
03:59 20.1 °C 13.3 °C 1010 hPa Calm     65 % 0 mm
04:04 20.1 °C 13.1 °C 1010 hPa Calm     64 % 0 mm
04:09 20.1 °C 13.1 °C 1010.4 hPa Calm     64 % 0 mm
04:14 20.1 °C 13.1 °C 1010.4 hPa Calm     64 % 0 mm
04:19 20.2 °C 12.9 °C 1010 hPa Calm     63 % 0 mm
04:24 20.2 °C 13.2 °C 1010 hPa Calm     64 % 0 mm
04:29 20.2 °C 12.9 °C 1010 hPa Calm     63 % 0 mm
04:34 20.2 °C 12.9 °C 1010 hPa Calm     63 % 0 mm
04:39 20.2 °C 13.1 °C 1010 hPa Calm     64 % 0 mm
04:44 20.2 °C 12.9 °C 1010 hPa Calm     63 % 0 mm
04:49 20.3 °C 12.8 °C 1010 hPa Calm     62 % 0 mm
04:54 20.3 °C 12.3 °C 1010 hPa Calm     60 % 0 mm
04:59 20.5 °C 12.2 °C 1010 hPa Calm     59 % 0 mm
05:04 20.6 °C 12.1 °C 1010.4 hPa Calm     58 % 0 mm
05:09 20.7 °C 11.8 °C 1010.4 hPa NE 0.8 km/h 3.7 km/h 57 % 0 mm
05:14 20.8 °C 11.7 °C 1010.4 hPa NE 0.3 km/h 3.7 km/h 56 % 0 mm
05:19 21.1 °C 11.4 °C 1010.4 hPa NE 3.1 km/h 5.6 km/h 54 % 0 mm
05:24 21.2 °C 11.3 °C 1010.4 hPa NE 2.1 km/h 4.8 km/h 53 % 0 mm
05:29 21.3 °C 11.1 °C 1010.4 hPa NE 0.5 km/h 3.7 km/h 52 % 0 mm
05:34 21.4 °C 11.1 °C 1010.4 hPa NE 0.3 km/h 1.9 km/h 52 % 0 mm
05:39 21.4 °C 10.8 °C 1010.4 hPa NE 0.6 km/h 3.7 km/h 51 % 0 mm
05:44 21.4 °C 10.8 °C 1010.4 hPa Calm     51 % 0 mm
05:49 21.4 °C 10.6 °C 1010 hPa NE 4.3 km/h 5.6 km/h 50 % 0 mm
05:54 21.6 °C 10.1 °C 1010 hPa NE 5.3 km/h 5.6 km/h 48 % 0 mm
05:59 21.8 °C 10 °C 1010 hPa NE 1.9 km/h 5.6 km/h 47 % 0 mm
06:04 22 °C 10.2 °C 1010 hPa NE 1.9 km/h 7.4 km/h 47 % 0 mm
06:09 22.2 °C 10.1 °C 1010.4 hPa NE 4.7 km/h 5.6 km/h 46 % 0 mm
06:14 22.3 °C 10.2 °C 1010.4 hPa NE 3.2 km/h 5.6 km/h 46 % 0 mm
06:19 22.4 °C 9.9 °C 1010.7 hPa NE 3.2 km/h 9.3 km/h 45 % 0 mm
06:24 22.4 °C 10.2 °C 1010.7 hPa NE 1.4 km/h 5.6 km/h 46 % 0 mm
06:29 22.4 °C 10.2 °C 1010.7 hPa Calm     46 % 0 mm
06:34 22.3 °C 10.1 °C 1010.7 hPa Calm     46 % 0 mm
06:39 22.2 °C 10.1 °C 1010.7 hPa Calm     46 % 0 mm
06:44 22.2 °C 10 °C 1010.7 hPa Calm     46 % 0 mm
06:49 22.1 °C 10.3 °C 1010.7 hPa Calm     47 % 0 mm
06:54 22 °C 10.2 °C 1010.7 hPa Calm     47 % 0 mm
06:59 21.9 °C 10.4 °C 1010.7 hPa Calm     48 % 0 mm
07:04 21.9 °C 10.4 °C 1010.7 hPa NE 0.3 km/h 1.6 km/h 48 % 0 mm
07:10 21.8 °C 10.3 °C 1010.7 hPa NE 0.5 km/h 1.9 km/h 48 % 0 mm
07:15 21.8 °C 10.3 °C 1010.7 hPa NE 1.6 km/h 5.6 km/h 48 % 0 mm
07:20 21.9 °C 10.4 °C 1010.7 hPa NE 1.9 km/h 3.7 km/h 48 % 0 mm
07:25 21.9 °C 10.4 °C 1011.1 hPa NE 2.4 km/h 5.6 km/h 48 % 0 mm
07:30 21.9 °C 10.4 °C 1011.1 hPa NE 2.4 km/h 3.7 km/h 48 % 0 mm
07:35 21.9 °C 10.4 °C 1011.1 hPa NE 5.3 km/h 5.6 km/h 48 % 0 mm
07:40 21.9 °C 10.4 °C 1011.1 hPa NE 3.5 km/h 5.6 km/h 48 % 0 mm
07:45 22 °C 10.5 °C 1011.1 hPa NE 4.3 km/h 8 km/h 48 % 0 mm
07:50 22.1 °C 10.6 °C 1011.1 hPa NE 3.7 km/h 5.6 km/h 48 % 0 mm
07:55 22.1 °C 10.6 °C 1011.4 hPa NE 5 km/h 6.4 km/h 48 % 0 mm
08:00 22.1 °C 10.6 °C 1011.4 hPa NE 6.6 km/h 11.1 km/h 48 % 0 mm
08:05 22.2 °C 10.9 °C 1011.4 hPa NE 3.4 km/h 5.6 km/h 49 % 0 mm
08:10 22.2 °C 10.9 °C 1011.7 hPa NE 3.4 km/h 7.4 km/h 49 % 0 mm
08:15 22.2 °C 10.9 °C 1011.4 hPa NE 3.7 km/h 8 km/h 49 % 0 mm
08:20 22.1 °C 10.9 °C 1011.4 hPa NE 6.8 km/h 9.3 km/h 49 % 0 mm
08:25 22.2 °C 10.9 °C 1011.4 hPa NE 4.2 km/h 9.3 km/h 49 % 0 mm
08:30 22.1 °C 10.9 °C 1011.4 hPa NE 5.3 km/h 7.4 km/h 49 % 0 mm
08:35 22.2 °C 10.9 °C 1011.4 hPa NE 5.6 km/h 7.4 km/h 49 % 0 mm
08:40 22.2 °C 10.9 °C 1011.4 hPa NE 2.6 km/h 7.4 km/h 49 % 0 mm
08:45 22.2 °C 10.9 °C 1011.4 hPa NE 2.7 km/h 3.7 km/h 49 % 0 mm
08:50 22.2 °C 11.3 °C 1011.4 hPa NE 0.2 km/h 1.9 km/h 50 % 0 mm
08:55 22.2 °C 11.3 °C 1011.4 hPa NE 2.4 km/h 5.6 km/h 50 % 0 mm
09:00 22.2 °C 11.3 °C 1011.4 hPa Calm   1.9 km/h 50 % 0 mm
09:05 22.2 °C 11.3 °C 1011.4 hPa NE 0.5 km/h 1.9 km/h 50 % 0 mm
09:10 22.2 °C 11.3 °C 1011.7 hPa Calm   3.7 km/h 50 % 0 mm
09:15 22.2 °C 11.6 °C 1011.7 hPa NE 3.9 km/h 5.6 km/h 51 % 0 mm
09:20 22.2 °C 11.6 °C 1011.7 hPa Calm   1.9 km/h 51 % 0 mm
09:25 22.3 °C 11.7 °C 1011.7 hPa NE 3.2 km/h 6.4 km/h 51 % 0 mm
09:30 22.3 °C 11.7 °C 1011.4 hPa NE 6.1 km/h 9.3 km/h 51 % 0 mm
09:35 22.4 °C 11.8 °C 1011.4 hPa NE 4.2 km/h 9.3 km/h 51 % 0 mm
09:40 22.6 °C 11.9 °C 1011.4 hPa NE 5.8 km/h 13 km/h 51 % 0 mm
09:45 22.6 °C 11.9 °C 1011.4 hPa NE 4.5 km/h 9.3 km/h 51 % 0 mm
09:50 22.7 °C 12.1 °C 1011.7 hPa NE 5 km/h 9.3 km/h 51 % 0 mm
09:55 22.9 °C 12.5 °C 1011.7 hPa NE 7.7 km/h 16.7 km/h 52 % 0 mm
10:00 23 °C 12.3 °C 1011.7 hPa NE 13 km/h 18.5 km/h 51 % 0 mm
10:05 23.1 °C 12.4 °C 1011.4 hPa NE 8.5 km/h 12.9 km/h 51 % 0 mm
10:10 23.2 °C 12.4 °C 1011.4 hPa NNE 11.7 km/h 13 km/h 51 % 0 mm
10:15 23.3 °C 12.9 °C 1011.7 hPa NNE 8.4 km/h 13 km/h 52 % 0 mm
10:20 23.4 °C 12.9 °C 1011.7 hPa NE 10.8 km/h 18.5 km/h 52 % 0 mm
10:25 23.6 °C 13.1 °C 1011.4 hPa NNE 6.1 km/h 18.5 km/h 52 % 0 mm
10:30 23.7 °C 13.2 °C 1011.4 hPa NNE 8 km/h 20.4 km/h 52 % 0 mm
10:35 23.9 °C 13.1 °C 1011.7 hPa NE 10 km/h 16.7 km/h 51 % 0 mm
10:40 23.8 °C 13.1 °C 1011.7 hPa NNE 13.4 km/h 22.2 km/h 51 % 0 mm
10:45 23.7 °C 13.3 °C 1011.7 hPa NE 13.8 km/h 18.5 km/h 52 % 0 mm
10:50 23.7 °C 13.3 °C 1011.7 hPa NE 11.9 km/h 18.5 km/h 52 % 0 mm
10:55 23.7 °C 13.3 °C 1011.7 hPa NE 10.1 km/h 19.3 km/h 52 % 0 mm
11:00 23.7 °C 13.2 °C 1011.7 hPa NE 9.2 km/h 18.5 km/h 52 % 0 mm
11:05 23.7 °C 13.2 °C 1011.7 hPa NE 6.6 km/h 14.8 km/h 52 % 0 mm
11:10 23.7 °C 13.3 °C 1011.7 hPa NE 8.2 km/h 14.8 km/h 52 % 0 mm
11:15 23.7 °C 12.9 °C 1011.7 hPa NNE 10 km/h 14.8 km/h 51 % 0 mm
11:20 23.6 °C 12.9 °C 1011.7 hPa NNE 10 km/h 14.8 km/h 51 % 0 mm
11:25 23.6 °C 12.8 °C 1011.7 hPa NNE 11.1 km/h 18.5 km/h 51 % 0 mm
11:30 23.6 °C 13.1 °C 1012.1 hPa NNE 11.4 km/h 18.5 km/h 52 % 0 mm
11:35 23.6 °C 13.1 °C 1012.1 hPa NNE 7.2 km/h 14.8 km/h 52 % 0 mm
11:40 23.6 °C 13.1 °C 1012.1 hPa NE 6.4 km/h 11.3 km/h 52 % 0 mm
11:45 23.4 °C 13.3 °C 1012.1 hPa NE 7.6 km/h 11.1 km/h 53 % 0 mm
11:50 23.3 °C 13.4 °C 1012.1 hPa NE 4 km/h 9.3 km/h 54 % 0 mm
11:55 23.1 °C 13.6 °C 1012.1 hPa NE 8 km/h 18.5 km/h 55 % 0 mm
12:00 22.8 °C 13.8 °C 1012.1 hPa NE 5.3 km/h 16.7 km/h 57 % 0 mm
12:05 22.6 °C 14.2 °C 1012.1 hPa NE 0.8 km/h 4.8 km/h 59 % 0 mm
12:10 22.4 °C 13.8 °C 1012.1 hPa NE 6.6 km/h 9.3 km/h 58 % 0 mm
12:15 22.3 °C 14.1 °C 1011.7 hPa NE 4 km/h 9.3 km/h 60 % 0 mm
12:20 22.2 °C 14.3 °C 1011.7 hPa NE 4 km/h 5.6 km/h 61 % 0.25 mm
12:25 22.1 °C 14.7 °C 1011.7 hPa NE 4.7 km/h 7.4 km/h 63 % 0.25 mm
12:30 22.1 °C 14.9 °C 1011.7 hPa NE 2.4 km/h 4.8 km/h 64 % 0.25 mm
12:35 22.1 °C 15 °C 1011.7 hPa NE 4 km/h 7.4 km/h 64 % 0.25 mm
12:40 22.2 °C 14.6 °C 1011.7 hPa NE 1 km/h 9.3 km/h 62 % 0.25 mm
12:45 22.4 °C 14.2 °C 1011.7 hPa NE 8.2 km/h 11.1 km/h 60 % 0.25 mm
12:50 22.6 °C 14.2 °C 1011.4 hPa NE 7.6 km/h 11.3 km/h 59 % 0.25 mm
12:55 22.8 °C 13.9 °C 1011.4 hPa NNE 7.9 km/h 13 km/h 57 % 0.25 mm
13:00 23 °C 14 °C 1011.4 hPa NNE 11.6 km/h 16.7 km/h 57 % 0.25 mm
13:05 23.1 °C 13.8 °C 1011.4 hPa NNE 10.3 km/h 13 km/h 56 % 0.25 mm
13:10 23.2 °C 14.2 °C 1011.4 hPa NNE 5.1 km/h 6.4 km/h 57 % 0.25 mm
13:15 23.2 °C 13.9 °C 1011.1 hPa ENE 9.7 km/h 12.9 km/h 56 % 0.25 mm
13:20 23.2 °C 13.9 °C 1011.1 hPa NE 8.5 km/h 16.7 km/h 56 % 0 mm
13:25 23.3 °C 14 °C 1011.1 hPa NE 6.9 km/h 9.7 km/h 56 % 0 mm
13:30 23.4 °C 14.1 °C 1011.1 hPa NE 5.6 km/h 11.1 km/h 56 % 0 mm
13:35 23.5 °C 14.2 °C 1011.1 hPa NE 4.7 km/h 11.1 km/h 56 % 0 mm
13:40 23.5 °C 13.7 °C 1011.1 hPa NE 10.8 km/h 16.7 km/h 54 % 0 mm
13:45 23.3 °C 13.5 °C 1011.1 hPa NNE 13.8 km/h 20.4 km/h 54 % 0 mm
13:50 23.4 °C 13.8 °C 1011.1 hPa East 7.7 km/h 18.5 km/h 55 % 0 mm
13:55 23.6 °C 13.4 °C 1011.1 hPa NE 7.2 km/h 20.4 km/h 53 % 0 mm
14:00 23.7 °C 13.6 °C 1011.1 hPa NE 7.2 km/h 13 km/h 53 % 0 mm
14:05 23.9 °C 13.4 °C 1011.1 hPa ENE 14.5 km/h 16.7 km/h 52 % 0 mm
14:10 23.8 °C 13.4 °C 1010.7 hPa NNE 11.7 km/h 16.7 km/h 52 % 0 mm
14:15 23.8 °C 13.4 °C 1010.7 hPa NE 5.8 km/h 11.1 km/h 52 % 0 mm
14:20 23.9 °C 13.5 °C 1010.7 hPa NNE 4.7 km/h 9.3 km/h 52 % 0 mm
14:25 23.9 °C 13.4 °C 1010.7 hPa ENE 15.3 km/h 18.5 km/h 52 % 0 mm
14:30 23.7 °C 13.3 °C 1010.7 hPa NNE 15.6 km/h 16.7 km/h 52 % 0 mm
14:35 23.6 °C 13.4 °C 1010.7 hPa NE 11.6 km/h 17.7 km/h 53 % 0 mm
14:41 23.6 °C 13.7 °C 1010.7 hPa ENE 7.4 km/h 11.1 km/h 54 % 0 mm
14:46 23.6 °C 14 °C 1011.1 hPa NNE 8.9 km/h 13 km/h 55 % 0 mm
14:51 23.8 °C 14.2 °C 1011.1 hPa NNE 10.3 km/h 13 km/h 55 % 0 mm
14:56 23.7 °C 13.8 °C 1011.1 hPa NNE 13 km/h 13 km/h 54 % 0 mm
15:01 23.6 °C 14 °C 1010.7 hPa NNE 7.6 km/h 13 km/h 55 % 0 mm
15:06 23.6 °C 14.1 °C 1010.7 hPa NNE 6.3 km/h 11.1 km/h 55 % 0 mm
15:11 23.5 °C 13.7 °C 1010.7 hPa NNE 4.2 km/h 7.4 km/h 54 % 0 mm
15:16 23.6 °C 14 °C 1010.7 hPa NE 7.2 km/h 11.1 km/h 55 % 0 mm
15:21 23.6 °C 14.1 °C 1010.7 hPa NE 7.7 km/h 9.3 km/h 55 % 0 mm
15:26 23.7 °C 14.4 °C 1010.7 hPa NE 1.6 km/h 5.6 km/h 56 % 0 mm
15:31 23.7 °C 14.4 °C 1010.4 hPa NE 8.9 km/h 13 km/h 56 % 0 mm
15:36 23.6 °C 14 °C 1010.4 hPa NNE 9.5 km/h 13 km/h 55 % 0 mm
15:41 23.3 °C 14 °C 1010.4 hPa North 8.5 km/h 14.8 km/h 56 % 0 mm
15:46 23 °C 14.3 °C 1010.4 hPa NNE 13.2 km/h 18.5 km/h 58 % 0 mm
15:51 22.7 °C 14.8 °C 1010.4 hPa North 8.9 km/h 16.7 km/h 61 % 0 mm
15:56 22.2 °C 14.8 °C 1010.4 hPa North 11.1 km/h 13 km/h 63 % 0 mm
16:01 21.8 °C 15.2 °C 1010.4 hPa North 9.8 km/h 14.8 km/h 66 % 0 mm
16:06 21.4 °C 15.3 °C 1010.4 hPa North 7.7 km/h 13 km/h 68 % 0 mm
16:11 21.1 °C 15.4 °C 1010.4 hPa North 9.3 km/h 13 km/h 70 % 0 mm
16:16 20.8 °C 15.6 °C 1010.4 hPa North 5.6 km/h 7.4 km/h 72 % 0.25 mm
16:21 20.6 °C 15.6 °C 1010.4 hPa North 2.6 km/h 5.6 km/h 73 % 0.25 mm
16:26 20.5 °C 15.9 °C 1010.4 hPa NNE 1.4 km/h 4.8 km/h 75 % 0.51 mm
16:31 20.3 °C 15.9 °C 1010.4 hPa North 3.7 km/h 6.4 km/h 76 % 0.51 mm
16:36 20.2 °C 16 °C 1010.4 hPa North 1.4 km/h 5.6 km/h 77 % 0.51 mm
16:41 20.1 °C 16.3 °C 1010.4 hPa NNE 0.2 km/h 1.9 km/h 79 % 0.51 mm
16:46 20 °C 16.2 °C 1010.4 hPa NNE 1.9 km/h 5.6 km/h 79 % 0.51 mm
16:51 19.9 °C 16.4 °C 1010.4 hPa North 4.2 km/h 5.6 km/h 80 % 0.51 mm
16:56 19.9 °C 16.6 °C 1010.4 hPa NNE 0.3 km/h 4.8 km/h 81 % 0.76 mm
17:01 19.8 °C 16.5 °C 1010.4 hPa NNE 2.1 km/h 4.8 km/h 81 % 1.02 mm
17:06 19.7 °C 16.4 °C 1010.4 hPa NNE 0.5 km/h 3.7 km/h 81 % 1.02 mm
17:11 19.8 °C 16.8 °C 1010.4 hPa NNE 0.5 km/h 1.6 km/h 83 % 1.02 mm
17:16 19.7 °C 16.6 °C 1010.4 hPa NNE 3.1 km/h 5.6 km/h 82 % 1.02 mm
17:21 19.7 °C 16.7 °C 1010.4 hPa NNE 4.2 km/h 7.4 km/h 83 % 1.02 mm
17:26 19.7 °C 16.7 °C 1010.4 hPa NNE 2.9 km/h 9.3 km/h 83 % 0.76 mm
17:31 19.7 °C 16.8 °C 1010.4 hPa NNE 5 km/h 9.7 km/h 83 % 0.76 mm
17:36 19.6 °C 16.7 °C 1010.4 hPa NNE 6.1 km/h 7.4 km/h 83 % 0.76 mm
17:41 19.6 °C 16.7 °C 1010.4 hPa NNE 2.9 km/h 5.6 km/h 83 % 0.51 mm
17:46 19.7 °C 16.9 °C 1010.4 hPa NNE 5.6 km/h 9.3 km/h 84 % 0.76 mm
17:51 19.6 °C 16.8 °C 1010.4 hPa NNE 0.6 km/h 3.2 km/h 84 % 0.76 mm
17:56 19.6 °C 16.8 °C 1010.4 hPa NNE 5.6 km/h 9.3 km/h 84 % 0.51 mm
18:01 19.4 °C 16.7 °C 1010.4 hPa NNE 4.2 km/h 9.3 km/h 84 % 0.51 mm
18:06 19.4 °C 16.8 °C 1010.4 hPa NNE 1 km/h 5.6 km/h 85 % 0.51 mm
18:11 19.3 °C 16.7 °C 1010.4 hPa NNE 1.3 km/h 5.6 km/h 85 % 0.51 mm
18:16 19.3 °C 16.9 °C 1010.4 hPa North 2.4 km/h 5.6 km/h 86 % 0.25 mm
18:21 19.2 °C 16.8 °C 1010.4 hPa North 1.3 km/h 5.6 km/h 86 % 0.25 mm
18:26 19.2 °C 16.8 °C 1010.4 hPa North 1.8 km/h 3.7 km/h 86 % 0.25 mm
18:31 19.1 °C 16.9 °C 1010.4 hPa NNE 1.9 km/h 5.6 km/h 87 % 0.51 mm
18:36 19 °C 16.8 °C 1010.4 hPa North 2.7 km/h 5.6 km/h 87 % 0.51 mm
18:41 19 °C 16.8 °C 1010.7 hPa North 2.9 km/h 4.8 km/h 87 % 0.51 mm
18:46 18.9 °C 16.7 °C 1010.7 hPa North 1.8 km/h 3.7 km/h 87 % 0.25 mm
18:51 18.8 °C 16.8 °C 1010.4 hPa Calm   3.7 km/h 88 % 0.25 mm
18:56 18.8 °C 16.8 °C 1010.4 hPa NNE 1.9 km/h 3.7 km/h 88 % 0.25 mm
19:01 18.8 °C 16.7 °C 1010.7 hPa North 2.6 km/h 7.4 km/h 88 % 0.51 mm
19:06 18.8 °C 16.9 °C 1010.7 hPa NNE 3.7 km/h 5.6 km/h 89 % 0.51 mm
19:11 18.8 °C 16.9 °C 1010.7 hPa NNE 1.3 km/h 5.6 km/h 89 % 0.51 mm
19:16 18.8 °C 16.9 °C 1010.7 hPa NNE 2.4 km/h 3.7 km/h 89 % 0.51 mm
19:21 18.7 °C 16.9 °C 1010.7 hPa NNE 2.4 km/h 3.7 km/h 89 % 0.51 mm
19:26 18.7 °C 16.8 °C 1010.7 hPa Calm     89 % 0.51 mm
19:32 18.7 °C 16.8 °C 1010.7 hPa NNE 2.3 km/h 4.8 km/h 89 % 0.25 mm
19:36 18.7 °C 16.8 °C 1010.7 hPa North 3.2 km/h 7.4 km/h 89 % 0.25 mm
19:41 18.7 °C 17 °C 1011.1 hPa NNE 1.8 km/h 3.7 km/h 90 % 0.51 mm
19:47 18.6 °C 16.9 °C 1011.1 hPa North 3.4 km/h 5.6 km/h 90 % 0.51 mm
19:52 18.5 °C 16.8 °C 1011.1 hPa NNE 2.7 km/h 5.6 km/h 90 % 0.51 mm
19:57 18.4 °C 16.8 °C 1011.1 hPa NNE 3.5 km/h 5.6 km/h 90 % 0.51 mm
20:02 18.4 °C 16.7 °C 1011.1 hPa NNE 3.5 km/h 7.4 km/h 90 % 0.51 mm
20:07 18.3 °C 16.7 °C 1011.1 hPa NNE 3.2 km/h 5.6 km/h 90 % 0.51 mm
20:12 18.3 °C 16.6 °C 1011.1 hPa NNE 3.5 km/h 5.6 km/h 90 % 0.51 mm
20:17 18.2 °C 16.6 °C 1011.1 hPa NNE 6.4 km/h 11.1 km/h 90 % 0.51 mm
20:22 18.2 °C 16.5 °C 1011.1 hPa NNE 1.9 km/h 4.8 km/h 90 % 0.51 mm
20:27 18.1 °C 16.4 °C 1011.1 hPa NNE 6.3 km/h 8 km/h 90 % 0.51 mm
20:32 18.1 °C 16.4 °C 1011.1 hPa NNE 2.9 km/h 5.6 km/h 90 % 0.51 mm
20:37 18 °C 16.5 °C 1011.1 hPa NNE 3.2 km/h 5.6 km/h 91 % 0.51 mm
20:42 18 °C 16.5 °C 1011.1 hPa NNE 3.7 km/h 5.6 km/h 91 % 0.25 mm
20:47 18 °C 16.5 °C 1011.1 hPa North 5.5 km/h 6.4 km/h 91 % 0.25 mm
20:52 18 °C 16.5 °C 1011.1 hPa NNE 3.4 km/h 5.6 km/h 91 % 0.25 mm
20:57 18 °C 16.5 °C 1011.1 hPa NNE 5.5 km/h 9.7 km/h 91 % 0 mm
21:02 18 °C 16.5 °C 1011.1 hPa NNE 4.5 km/h 7.4 km/h 91 % 0 mm
21:07 17.9 °C 16.4 °C 1011.4 hPa North 5.6 km/h 7.4 km/h 91 % 0 mm
21:12 17.9 °C 16.6 °C 1011.4 hPa NNE 6.8 km/h 9.3 km/h 92 % 0 mm
21:17 17.9 °C 16.6 °C 1011.4 hPa NNE 4.5 km/h 5.6 km/h 92 % 0 mm
21:22 17.9 °C 16.6 °C 1011.4 hPa NNE 3.1 km/h 5.6 km/h 92 % 0 mm
21:27 17.9 °C 16.6 °C 1011.4 hPa North 2.1 km/h 5.6 km/h 92 % 0.25 mm
21:32 17.9 °C 16.6 °C 1011.7 hPa NNE 4 km/h 7.4 km/h 92 % 0.25 mm
21:37 17.8 °C 16.5 °C 1011.7 hPa North 4.2 km/h 5.6 km/h 92 % 0.25 mm
21:42 17.8 °C 16.4 °C 1011.7 hPa NNE 3.9 km/h 7.4 km/h 92 % 0.25 mm
21:47 17.8 °C 16.4 °C 1011.7 hPa NNE 4 km/h 8 km/h 92 % 0.25 mm
21:52 17.8 °C 16.4 °C 1011.7 hPa NNE 3.9 km/h 6.4 km/h 92 % 0.25 mm
21:57 17.8 °C 16.4 °C 1011.7 hPa North 4.5 km/h 9.3 km/h 92 % 0.51 mm
22:02 17.8 °C 16.4 °C 1011.7 hPa North 2.3 km/h 5.6 km/h 92 % 0.51 mm
22:07 17.8 °C 16.4 °C 1011.7 hPa NNE 3.1 km/h 5.6 km/h 92 % 0.51 mm
22:12 17.8 °C 16.5 °C 1011.7 hPa NNE 1.6 km/h 5.6 km/h 92 % 0.51 mm
22:17 17.8 °C 16.5 °C 1011.7 hPa North 2.6 km/h 5.6 km/h 92 % 0.51 mm
22:22 17.8 °C 16.7 °C 1011.7 hPa NNE 1.3 km/h 3.7 km/h 93 % 0.51 mm
22:27 17.8 °C 16.7 °C 1011.7 hPa NNE 2.6 km/h 5.6 km/h 93 % 0.51 mm
22:32 17.8 °C 16.7 °C 1011.7 hPa North 2.3 km/h 5.6 km/h 93 % 0.51 mm
22:37 17.8 °C 16.7 °C 1011.7 hPa NNE 1 km/h 3.7 km/h 93 % 0.51 mm
22:42 17.9 °C 16.7 °C 1011.7 hPa NNE 2.6 km/h 5.6 km/h 93 % 0.51 mm
22:47 17.8 °C 16.7 °C 1011.4 hPa North 1.9 km/h 5.6 km/h 93 % 0.51 mm
22:52 17.9 °C 16.7 °C 1011.4 hPa North 3.4 km/h 7.4 km/h 93 % 0.51 mm
22:57 17.9 °C 16.7 °C 1011.4 hPa NNE 1 km/h 3.7 km/h 93 % 0.51 mm
23:02 17.9 °C 16.7 °C 1011.4 hPa Calm   1.9 km/h 93 % 0.51 mm
23:07 17.9 °C 16.7 °C 1011.4 hPa NNE 3.9 km/h 5.6 km/h 93 % 0.76 mm
23:12 17.9 °C 16.7 °C 1011.4 hPa North 4.8 km/h 7.4 km/h 93 % 0.76 mm
23:17 17.9 °C 16.7 °C 1011.4 hPa North 2.9 km/h 4.8 km/h 93 % 0.76 mm
23:22 17.9 °C 16.7 °C 1011.4 hPa NNE 1.9 km/h 5.6 km/h 93 % 0.51 mm
23:27 17.9 °C 16.7 °C 1011.1 hPa North 1.6 km/h 1.9 km/h 93 % 0.51 mm
23:32 17.9 °C 16.7 °C 1011.1 hPa NNE 2.6 km/h 5.6 km/h 93 % 0.51 mm
23:37 17.9 °C 16.7 °C 1011.1 hPa North 1.6 km/h 3.7 km/h 93 % 0.51 mm
23:42 17.9 °C 16.9 °C 1011.1 hPa Calm   3.7 km/h 94 % 0.76 mm
23:47 17.9 °C 16.9 °C 1011.1 hPa Calm     94 % 0.76 mm
23:52 17.9 °C 16.9 °C 1010.7 hPa Calm   1.9 km/h 94 % 0.76 mm
23:57 17.8 °C 16.8 °C 1010.7 hPa Calm     94 % 0.51 mm
Ararat Weather
Compliments of Weather Underground - 2.25 mb
Click here to send mail.


ABOUT

Live weather data from Ararat, Victoria, Australia, 3377
Data uploaded from Cumulus every 5 minutes to Weather Underground.
This site then downloads the raw data for formatting and display.
Metric and imperial data can be displayed. Graphs and historical data available.
Includes Sun and Moon times and rain image live from BOM.

Check out Ararat Weather on Facebook, Twitter and Google +

Help support ongoing costs by checking out the ads





Follow @AraratWeather